createdAt,value
2018-12-03T00:01:07.379Z,11.80
2018-12-03T00:03:36.879Z,11.80
2018-12-03T00:06:06.271Z,11.80
2018-12-03T00:08:35.499Z,11.80
2018-12-03T00:11:05.906Z,11.80
2018-12-03T00:13:35.227Z,11.80
2018-12-03T00:16:04.497Z,11.80
2018-12-03T00:18:34.411Z,11.80
2018-12-03T00:21:03.662Z,11.90
2018-12-03T00:23:32.990Z,11.90
2018-12-03T00:26:02.713Z,11.90
2018-12-03T00:28:32.771Z,11.90
2018-12-03T00:31:02.046Z,11.90
2018-12-03T00:33:31.432Z,11.90
2018-12-03T00:36:00.706Z,11.90
2018-12-03T00:38:30.035Z,11.90
2018-12-03T00:40:59.295Z,12.00
2018-12-03T00:43:28.684Z,11.90
2018-12-03T00:45:58.940Z,12.00
2018-12-03T00:48:28.224Z,12.00
2018-12-03T00:50:57.477Z,12.00
2018-12-03T00:53:26.712Z,12.00
2018-12-03T00:55:55.986Z,11.90
2018-12-03T00:58:25.355Z,11.90
2018-12-03T01:00:55.399Z,11.90
2018-12-03T01:03:24.690Z,12.00
2018-12-03T01:05:54.622Z,12.00
2018-12-03T01:08:24.566Z,12.00
2018-12-03T01:10:53.920Z,12.00
2018-12-03T01:13:23.206Z,12.00
2018-12-03T01:15:52.666Z,12.00
2018-12-03T01:18:22.089Z,12.00
2018-12-03T01:20:51.317Z,12.00
2018-12-03T01:23:21.690Z,12.00
2018-12-03T01:25:50.943Z,11.90
2018-12-03T01:28:20.276Z,12.00
2018-12-03T01:30:49.614Z,12.00
2018-12-03T01:33:19.145Z,12.00
2018-12-03T01:35:48.386Z,12.00
2018-12-03T01:38:17.889Z,12.00
2018-12-03T01:40:48.095Z,12.10
2018-12-03T01:43:17.355Z,12.00
2018-12-03T01:45:46.642Z,12.00
2018-12-03T01:48:15.878Z,12.10
2018-12-03T01:50:45.696Z,12.10
2018-12-03T01:53:14.943Z,12.10
2018-12-03T01:55:45.064Z,12.10
2018-12-03T01:58:14.286Z,12.10
2018-12-03T02:00:43.543Z,12.10
2018-12-03T02:03:12.805Z,12.10
2018-12-03T02:05:42.119Z,12.10
2018-12-03T02:08:11.389Z,12.10
2018-12-03T02:10:40.706Z,12.10
2018-12-03T02:13:09.966Z,12.10
2018-12-03T02:15:39.264Z,12.10
2018-12-03T02:18:08.462Z,12.10
2018-12-03T02:20:37.884Z,12.10
2018-12-03T02:23:07.963Z,12.10
2018-12-03T02:25:37.230Z,12.10
2018-12-03T02:28:07.260Z,12.10
2018-12-03T02:30:36.503Z,12.10
2018-12-03T02:33:06.616Z,12.10
2018-12-03T02:35:36.710Z,12.10
2018-12-03T02:38:06.055Z,12.10
2018-12-03T02:40:35.518Z,12.10
2018-12-03T02:43:04.939Z,12.10
2018-12-03T02:45:34.153Z,12.10
2018-12-03T02:48:03.963Z,12.20
2018-12-03T02:50:33.216Z,12.20
2018-12-03T02:53:02.506Z,12.20
2018-12-03T02:55:31.731Z,12.10
2018-12-03T02:58:07.886Z,12.20
2018-12-03T03:00:39.838Z,12.20
2018-12-03T03:03:09.117Z,12.20
2018-12-03T03:05:38.354Z,12.20
2018-12-03T03:08:07.624Z,12.20
2018-12-03T03:10:36.948Z,12.20
2018-12-03T03:13:06.209Z,12.20
2018-12-03T03:15:35.495Z,12.20
2018-12-03T03:18:05.061Z,12.20
2018-12-03T03:20:34.445Z,12.20
2018-12-03T03:23:03.830Z,12.20
2018-12-03T03:25:33.162Z,12.20
2018-12-03T03:28:02.447Z,12.20
2018-12-03T03:30:31.775Z,12.20
2018-12-03T03:33:00.996Z,12.20
2018-12-03T03:35:30.247Z,12.20
2018-12-03T03:37:59.447Z,12.20
2018-12-03T03:40:28.681Z,12.20
2018-12-03T03:42:57.929Z,12.20
2018-12-03T03:45:27.222Z,12.20
2018-12-03T03:47:56.468Z,12.20
2018-12-03T03:50:25.779Z,12.20
2018-12-03T03:52:55.069Z,12.20
2018-12-03T03:55:24.372Z,12.10
2018-12-03T03:57:53.583Z,12.10
2018-12-03T04:00:23.491Z,12.10
2018-12-03T04:02:52.741Z,12.10
2018-12-03T04:05:21.985Z,12.10
2018-12-03T04:07:51.492Z,12.00
2018-12-03T04:10:21.095Z,12.00
2018-12-03T04:12:50.300Z,11.90
2018-12-03T04:15:19.646Z,11.90
2018-12-03T04:17:48.945Z,11.90
2018-12-03T04:20:19.802Z,11.90
2018-12-03T04:22:51.561Z,11.90
2018-12-03T04:25:21.493Z,11.80
2018-12-03T04:27:50.743Z,11.80
2018-12-03T04:30:22.195Z,11.80
2018-12-03T04:32:52.674Z,11.80
2018-12-03T04:35:23.058Z,11.80
2018-12-03T04:37:52.310Z,11.90
2018-12-03T04:40:22.930Z,11.90
2018-12-03T04:42:52.177Z,11.90
2018-12-03T04:45:21.463Z,11.90
2018-12-03T04:47:51.420Z,11.80
2018-12-03T04:50:21.869Z,11.80
2018-12-03T04:52:51.102Z,11.80
2018-12-03T04:55:21.115Z,11.70
2018-12-03T04:57:50.852Z,11.60
2018-12-03T05:00:21.765Z,11.60
2018-12-03T05:02:52.432Z,11.60
2018-12-03T05:05:21.982Z,11.70
2018-12-03T05:07:51.241Z,11.70
2018-12-03T05:10:22.306Z,11.70
2018-12-03T05:12:53.176Z,11.80
2018-12-03T05:15:22.637Z,11.70
2018-12-03T05:17:51.985Z,11.70
2018-12-03T05:20:22.991Z,11.60
2018-12-03T05:22:52.391Z,11.60
2018-12-03T05:25:21.754Z,11.50
2018-12-03T05:27:51.603Z,11.40
2018-12-03T05:30:21.123Z,11.40
2018-12-03T05:32:50.346Z,11.30
2018-12-03T05:35:22.706Z,11.30
2018-12-03T05:37:51.991Z,11.30
2018-12-03T05:40:23.555Z,11.20
2018-12-03T05:42:53.076Z,11.20
2018-12-03T05:45:22.408Z,11.20
2018-12-03T05:47:51.710Z,11.20
2018-12-03T05:50:21.214Z,11.10
2018-12-03T05:52:50.561Z,11.10
2018-12-03T05:55:19.846Z,11.10
2018-12-03T05:57:49.106Z,11.10
2018-12-03T06:00:22.600Z,11.10
2018-12-03T06:02:52.699Z,11.10
2018-12-03T06:05:22.346Z,11.20
2018-12-03T06:07:51.583Z,11.20
2018-12-03T06:10:22.174Z,11.30
2018-12-03T06:12:51.658Z,11.40
2018-12-03T06:15:22.012Z,11.40
2018-12-03T06:17:53.470Z,11.40
2018-12-03T06:20:23.208Z,11.40
2018-12-03T06:22:53.900Z,11.40
2018-12-03T06:25:26.862Z,11.40
2018-12-03T06:27:56.126Z,11.40
2018-12-03T06:30:26.863Z,11.30
2018-12-03T06:32:56.067Z,11.30
2018-12-03T06:35:25.285Z,11.30
2018-12-03T06:37:54.587Z,11.20
2018-12-03T06:40:26.309Z,11.20
2018-12-03T06:42:55.554Z,11.20
2018-12-03T06:45:25.550Z,11.10
2018-12-03T06:47:56.378Z,11.10
2018-12-03T06:50:25.811Z,11.10
2018-12-03T06:52:55.035Z,11.00
2018-12-03T06:55:24.281Z,11.00
2018-12-03T06:57:53.496Z,10.90
2018-12-03T07:00:23.820Z,10.90
2018-12-03T07:02:53.087Z,10.80
2018-12-03T07:05:22.430Z,10.80
2018-12-03T07:07:54.320Z,10.80
2018-12-03T07:10:24.792Z,10.70
2018-12-03T07:12:59.734Z,10.70
2018-12-03T07:15:31.163Z,10.70
2018-12-03T07:18:00.397Z,10.60
2018-12-03T07:20:30.217Z,10.70
2018-12-03T07:22:59.593Z,10.70
2018-12-03T07:25:29.039Z,10.70
2018-12-03T07:28:05.390Z,10.70
2018-12-03T07:30:34.882Z,10.70
2018-12-03T07:33:04.810Z,10.70
2018-12-03T07:35:34.830Z,10.70
2018-12-03T07:38:04.115Z,10.70
2018-12-03T07:40:33.693Z,10.80
2018-12-03T07:43:02.936Z,10.70
2018-12-03T07:45:32.955Z,10.70
2018-12-03T07:48:02.295Z,10.60
2018-12-03T07:50:31.535Z,10.60
2018-12-03T07:53:00.844Z,10.50
2018-12-03T07:55:30.049Z,10.50
2018-12-03T07:58:03.347Z,10.50
2018-12-03T08:00:37.603Z,10.60
2018-12-03T08:03:07.260Z,10.60
2018-12-03T08:05:37.331Z,10.60
2018-12-03T08:08:07.899Z,10.70
2018-12-03T08:10:37.535Z,10.70
2018-12-03T08:13:09.510Z,10.70
2018-12-03T08:15:39.107Z,10.80
2018-12-03T08:18:11.560Z,10.90
2018-12-03T08:20:47.330Z,10.90
2018-12-03T08:23:19.678Z,11.00
2018-12-03T08:25:48.977Z,11.00
2018-12-03T08:28:18.277Z,11.10
2018-12-03T08:30:47.506Z,11.20
2018-12-03T08:33:16.886Z,11.20
2018-12-03T08:35:46.978Z,11.30
2018-12-03T08:38:16.305Z,11.30
2018-12-03T08:40:45.601Z,11.30
2018-12-03T08:43:14.825Z,11.40
2018-12-03T08:45:44.294Z,11.40
2018-12-03T08:48:14.498Z,11.50
2018-12-03T08:50:45.965Z,11.50
2018-12-03T08:53:16.029Z,11.50
2018-12-03T08:55:45.660Z,11.60
2018-12-03T08:58:16.078Z,11.60
2018-12-03T09:00:46.872Z,11.70
2018-12-03T09:03:22.555Z,11.60
2018-12-03T09:05:51.807Z,11.70
2018-12-03T09:08:21.334Z,11.70
2018-12-03T09:10:51.565Z,11.70
2018-12-03T09:13:22.598Z,11.80
2018-12-03T09:15:58.908Z,11.80
2018-12-03T09:18:32.455Z,11.80
2018-12-03T09:21:02.270Z,11.80
2018-12-03T09:23:31.661Z,11.80
2018-12-03T09:26:00.886Z,11.80
2018-12-03T09:28:30.354Z,11.90
2018-12-03T09:30:59.693Z,11.90
2018-12-03T09:33:29.365Z,12.00
2018-12-03T09:35:58.601Z,12.00
2018-12-03T09:38:28.838Z,12.00
2018-12-03T09:40:59.450Z,12.00
2018-12-03T09:43:30.092Z,12.10
2018-12-03T09:45:59.387Z,12.00
2018-12-03T09:48:28.693Z,12.10
2018-12-03T09:50:58.905Z,12.10
2018-12-03T09:53:29.001Z,12.20
2018-12-03T09:55:58.254Z,12.20
2018-12-03T09:58:27.543Z,12.30
2018-12-03T10:00:56.822Z,12.20
2018-12-03T10:03:28.699Z,12.20
2018-12-03T10:06:00.856Z,12.20
2018-12-03T10:08:31.855Z,12.20
2018-12-03T10:11:03.130Z,12.20
2018-12-03T10:13:33.055Z,12.20
2018-12-03T10:16:02.603Z,12.20
2018-12-03T10:18:31.840Z,12.10
2018-12-03T10:21:02.183Z,12.10
2018-12-03T10:23:31.589Z,12.20
2018-12-03T10:26:01.391Z,12.20
2018-12-03T10:28:31.479Z,12.30
2018-12-03T10:31:00.729Z,12.30
2018-12-03T10:33:31.889Z,12.40
2018-12-03T10:36:03.302Z,12.40
2018-12-03T10:38:38.174Z,12.40
2018-12-03T10:41:18.461Z,12.50
2018-12-03T10:43:47.735Z,12.50
2018-12-03T10:46:16.999Z,12.50
2018-12-03T10:48:46.680Z,12.60
2018-12-03T10:51:18.161Z,12.50
2018-12-03T10:53:47.408Z,12.50
2018-12-03T10:56:17.398Z,12.40
2018-12-03T10:58:47.045Z,12.40
2018-12-03T11:01:21.848Z,12.40
2018-12-03T11:03:56.864Z,12.30
2018-12-03T11:06:26.625Z,12.40
2018-12-03T11:08:56.621Z,12.40
2018-12-03T11:11:55.191Z,12.30
2018-12-03T11:14:23.507Z,12.30
2018-12-03T11:16:52.198Z,12.30
2018-12-03T11:19:20.403Z,12.30
2018-12-03T11:21:48.906Z,12.30
2018-12-03T11:24:17.119Z,12.30
2018-12-03T11:26:45.259Z,12.30
2018-12-03T11:29:13.411Z,12.40
2018-12-03T11:31:41.549Z,12.40
2018-12-03T11:34:10.819Z,12.40
2018-12-03T11:36:39.070Z,12.30
2018-12-03T11:39:08.274Z,12.20
2018-12-03T11:41:36.583Z,12.20
2018-12-03T11:44:04.994Z,12.20
2018-12-03T11:46:33.130Z,12.30
2018-12-03T11:49:01.335Z,12.40
2018-12-03T11:51:29.684Z,12.40
2018-12-03T11:53:58.122Z,12.50
2018-12-03T11:56:26.346Z,12.60
2018-12-03T11:58:54.491Z,12.70
2018-12-03T12:01:22.622Z,12.70
2018-12-03T12:03:50.771Z,12.70
2018-12-03T12:06:18.942Z,12.80
2018-12-03T12:08:47.288Z,12.70
2018-12-03T12:11:15.413Z,12.70
2018-12-03T12:13:43.582Z,12.60
2018-12-03T12:16:11.731Z,12.60
2018-12-03T12:18:39.910Z,12.60
2018-12-03T12:21:08.062Z,12.50
2018-12-03T12:23:36.193Z,12.50
2018-12-03T12:26:05.223Z,12.50
2018-12-03T12:28:38.206Z,12.50
2018-12-03T12:31:03.533Z,12.50
2018-12-03T12:33:31.732Z,12.60
2018-12-03T12:35:59.915Z,12.60
2018-12-03T12:38:28.191Z,12.60
2018-12-03T12:40:56.433Z,12.60
2018-12-03T12:43:24.679Z,12.70
2018-12-03T12:45:52.931Z,12.80
2018-12-03T12:48:21.388Z,12.80
2018-12-03T12:50:50.087Z,12.80
2018-12-03T12:53:18.211Z,12.80
2018-12-03T12:55:46.398Z,12.70
2018-12-03T12:58:14.563Z,12.70
2018-12-03T13:00:42.719Z,12.70
2018-12-03T13:03:10.870Z,12.70
2018-12-03T13:05:39.084Z,12.70
2018-12-03T13:08:07.222Z,12.70
2018-12-03T13:10:35.621Z,12.60
2018-12-03T13:13:03.758Z,12.50
2018-12-03T13:15:31.926Z,12.50
2018-12-03T13:18:00.071Z,12.50
2018-12-03T13:20:28.819Z,12.50
2018-12-03T13:22:56.954Z,12.50
2018-12-03T13:25:25.183Z,12.50
2018-12-03T13:27:53.423Z,12.50
2018-12-03T13:30:21.741Z,12.50
2018-12-03T13:32:49.879Z,12.40
2018-12-03T13:35:18.315Z,12.40
2018-12-03T13:37:47.106Z,12.40
2018-12-03T13:40:15.289Z,12.40
2018-12-03T13:42:43.459Z,12.30
2018-12-03T13:45:11.613Z,12.30
2018-12-03T13:47:40.097Z,12.30
2018-12-03T13:50:08.505Z,12.20
2018-12-03T13:52:36.846Z,12.20
2018-12-03T13:55:06.751Z,12.20
2018-12-03T13:57:34.969Z,12.20
2018-12-03T14:00:05.552Z,12.20
2018-12-03T14:02:33.877Z,12.10
2018-12-03T14:05:02.238Z,12.10
2018-12-03T14:07:30.401Z,12.10
2018-12-03T14:09:59.442Z,12.10
2018-12-03T14:12:27.763Z,12.10
2018-12-03T14:14:56.001Z,12.00
2018-12-03T14:17:24.145Z,12.00
2018-12-03T14:19:52.287Z,11.90
2018-12-03T14:22:20.430Z,11.90
2018-12-03T14:24:48.586Z,11.80
2018-12-03T14:27:17.019Z,11.70
2018-12-03T14:29:45.396Z,11.60
2018-12-03T14:32:13.531Z,11.50
2018-12-03T14:34:41.687Z,11.40
2018-12-03T14:37:09.916Z,11.40
2018-12-03T14:39:38.071Z,11.40
2018-12-03T14:42:06.515Z,11.40
2018-12-03T14:44:34.797Z,11.30
2018-12-03T14:47:03.230Z,11.30
2018-12-03T14:49:31.361Z,11.40
2018-12-03T14:51:59.755Z,11.40
2018-12-03T14:54:27.918Z,11.40
2018-12-03T14:56:56.180Z,11.30
2018-12-03T14:59:24.302Z,11.30
2018-12-03T15:01:52.455Z,11.30
2018-12-03T15:04:20.655Z,11.30
2018-12-03T15:06:48.819Z,11.30
2018-12-03T15:09:18.043Z,11.30
2018-12-03T15:11:46.321Z,11.30
2018-12-03T15:14:14.694Z,11.20
2018-12-03T15:16:42.980Z,11.30
2018-12-03T15:19:11.717Z,11.30
2018-12-03T15:21:40.075Z,11.20
2018-12-03T15:24:13.260Z,11.20
2018-12-03T15:26:38.438Z,11.10
2018-12-03T15:29:06.751Z,11.10
2018-12-03T15:31:35.030Z,11.10
2018-12-03T15:34:03.256Z,11.10
2018-12-03T15:36:31.393Z,11.10
2018-12-03T15:38:59.671Z,11.00
2018-12-03T15:41:27.930Z,11.00
2018-12-03T15:43:56.068Z,11.00
2018-12-03T15:46:24.245Z,11.00
2018-12-03T15:48:52.397Z,11.00
2018-12-03T15:51:20.588Z,11.00
2018-12-03T15:53:48.723Z,11.00
2018-12-03T15:56:16.869Z,10.90
2018-12-03T15:58:45.223Z,10.90
2018-12-03T16:01:14.508Z,10.90
2018-12-03T16:03:42.855Z,11.00
2018-12-03T16:06:10.989Z,11.00
2018-12-03T16:08:39.227Z,11.10
2018-12-03T16:11:07.379Z,11.10
2018-12-03T16:13:35.512Z,11.20
2018-12-03T16:16:03.758Z,11.20
2018-12-03T16:18:31.882Z,11.20
2018-12-03T16:21:00.151Z,11.10
2018-12-03T16:23:28.421Z,11.10
2018-12-03T16:25:56.642Z,11.00
2018-12-03T16:28:24.787Z,11.00
2018-12-03T16:30:52.960Z,10.90
2018-12-03T16:33:21.242Z,10.90
2018-12-03T16:35:49.384Z,11.00
2018-12-03T16:38:17.545Z,10.90
2018-12-03T16:40:45.875Z,10.80
2018-12-03T16:43:14.029Z,10.80
2018-12-03T16:45:42.191Z,10.80
2018-12-03T16:48:10.364Z,10.70
2018-12-03T16:50:38.523Z,10.70
2018-12-03T16:53:06.728Z,10.70
2018-12-03T16:55:34.955Z,10.70
2018-12-03T16:58:03.122Z,10.70
2018-12-03T17:00:31.300Z,10.70
2018-12-03T17:02:59.447Z,10.80
2018-12-03T17:05:27.606Z,10.80
2018-12-03T17:07:55.972Z,10.80
2018-12-03T17:10:24.191Z,10.80
2018-12-03T17:12:52.387Z,10.80
2018-12-03T17:15:20.735Z,10.90
2018-12-03T17:17:48.942Z,10.90
2018-12-03T17:20:17.310Z,10.90
2018-12-03T17:22:45.468Z,10.90
2018-12-03T17:25:13.840Z,10.90
2018-12-03T17:27:42.017Z,10.90
2018-12-03T17:30:10.337Z,11.00
2018-12-03T17:32:38.613Z,10.70
2018-12-03T17:35:06.812Z,10.50
2018-12-03T17:37:34.979Z,10.10
2018-12-03T17:40:03.831Z,9.90
2018-12-03T17:42:31.962Z,9.80
2018-12-03T17:45:00.104Z,9.70
2018-12-03T17:47:28.250Z,9.60
2018-12-03T17:49:56.383Z,9.50
2018-12-03T17:52:24.517Z,9.50
2018-12-03T17:54:52.672Z,9.40
2018-12-03T17:57:20.814Z,9.40
2018-12-03T17:59:49.045Z,9.30
2018-12-03T18:02:17.184Z,9.40
2018-12-03T18:04:45.335Z,9.30
2018-12-03T18:07:13.480Z,9.30
2018-12-03T18:09:41.625Z,9.30
2018-12-03T18:12:09.791Z,9.30
2018-12-03T18:14:37.918Z,9.30
2018-12-03T18:17:06.038Z,9.20
2018-12-03T18:19:34.225Z,9.30
2018-12-03T18:22:02.421Z,9.20
2018-12-03T18:24:30.565Z,9.20
2018-12-03T18:26:59.617Z,9.10
2018-12-03T18:29:27.805Z,9.00
2018-12-03T18:31:56.288Z,8.90
2018-12-03T18:34:24.530Z,8.80
2018-12-03T18:36:52.719Z,8.80
2018-12-03T18:39:20.879Z,8.80
2018-12-03T18:41:49.714Z,8.70
2018-12-03T18:44:17.852Z,8.60
2018-12-03T18:46:45.988Z,8.60
2018-12-03T18:49:14.119Z,8.50
2018-12-03T18:51:42.317Z,8.50
2018-12-03T18:54:10.544Z,8.40
2018-12-03T18:56:38.777Z,8.30
2018-12-03T18:59:06.904Z,8.30
2018-12-03T19:01:35.052Z,8.30
2018-12-03T19:04:04.029Z,8.30
2018-12-03T19:06:32.152Z,8.20
2018-12-03T19:09:00.288Z,8.30
2018-12-03T19:11:28.417Z,8.30
2018-12-03T19:13:57.140Z,8.30
2018-12-03T19:16:25.478Z,8.30
2018-12-03T19:18:53.606Z,8.30
2018-12-03T19:21:21.751Z,8.40
2018-12-03T19:23:49.889Z,8.30
2018-12-03T19:26:18.022Z,8.30
2018-12-03T19:28:46.163Z,8.30
2018-12-03T19:31:18.083Z,8.30
2018-12-03T19:33:46.214Z,8.20
2018-12-03T19:36:14.524Z,8.20
2018-12-03T19:38:42.666Z,8.20
2018-12-03T19:41:10.811Z,8.20
2018-12-03T19:43:38.951Z,8.00
2018-12-03T19:46:07.092Z,8.00
2018-12-03T19:48:35.417Z,7.90
2018-12-03T19:51:03.551Z,7.90
2018-12-03T19:53:31.742Z,7.90
2018-12-03T19:55:59.883Z,7.90
2018-12-03T19:58:28.014Z,7.90
2018-12-03T20:00:56.226Z,7.90
2018-12-03T20:03:24.359Z,7.90
2018-12-03T20:05:52.825Z,7.90
2018-12-03T20:08:20.947Z,7.90
2018-12-03T20:10:49.133Z,7.90
2018-12-03T20:13:17.438Z,7.90
2018-12-03T20:15:45.615Z,7.80
2018-12-03T20:18:13.898Z,7.80
2018-12-03T20:20:42.143Z,7.80
2018-12-03T20:23:10.291Z,7.80
2018-12-03T20:25:39.175Z,7.80
2018-12-03T20:28:07.623Z,7.80
2018-12-03T20:30:37.666Z,7.70
2018-12-03T20:33:05.832Z,7.70
2018-12-03T20:35:33.962Z,7.70
2018-12-03T20:38:02.170Z,7.70
2018-12-03T20:40:30.710Z,7.70
2018-12-03T20:42:58.842Z,7.70
2018-12-03T20:45:46.683Z,7.70
2018-12-03T20:48:14.931Z,7.70
2018-12-03T20:50:43.596Z,7.70
2018-12-03T20:53:11.978Z,7.70
2018-12-03T20:55:40.310Z,7.60
2018-12-03T20:58:08.538Z,7.60
2018-12-03T21:00:36.679Z,7.70
2018-12-03T21:03:04.811Z,7.70
2018-12-03T21:05:33.063Z,7.70
2018-12-03T21:08:01.228Z,7.70
2018-12-03T21:10:29.389Z,7.70
2018-12-03T21:12:57.532Z,7.80
2018-12-03T21:15:25.679Z,7.80
2018-12-03T21:17:53.812Z,7.80
2018-12-03T21:20:22.771Z,7.80
2018-12-03T21:22:51.411Z,7.70
2018-12-03T21:25:19.555Z,7.70
2018-12-03T21:27:47.738Z,7.70
2018-12-03T21:30:15.888Z,7.60
2018-12-03T21:32:44.193Z,7.60
2018-12-03T21:35:12.327Z,7.60
2018-12-03T21:37:40.517Z,7.60
2018-12-03T21:40:08.719Z,7.60
2018-12-03T21:42:36.870Z,7.60
2018-12-03T21:45:05.866Z,7.60
2018-12-03T21:47:35.379Z,7.70
2018-12-03T21:50:05.896Z,7.70
2018-12-03T21:52:33.918Z,7.70
2018-12-03T21:55:02.057Z,7.70
2018-12-03T21:57:30.212Z,7.70
2018-12-03T21:59:58.382Z,7.70
2018-12-03T22:02:26.518Z,7.70
2018-12-03T22:04:55.480Z,7.70
2018-12-03T22:07:23.744Z,7.70
2018-12-03T22:09:51.870Z,7.70
2018-12-03T22:12:20.007Z,7.70
2018-12-03T22:14:48.135Z,7.80
2018-12-03T22:17:16.272Z,7.80
2018-12-03T22:19:44.412Z,7.80
2018-12-03T22:22:12.538Z,7.70
2018-12-03T22:24:40.741Z,7.70
2018-12-03T22:27:08.891Z,7.70
2018-12-03T22:29:37.018Z,7.60
2018-12-03T22:32:05.278Z,7.60
2018-12-03T22:34:33.453Z,7.60
2018-12-03T22:37:01.730Z,7.60
2018-12-03T22:39:30.566Z,7.60
2018-12-03T22:41:58.802Z,7.60
2018-12-03T22:44:26.932Z,7.50
2018-12-03T22:46:55.060Z,7.50
2018-12-03T22:49:23.230Z,7.50
2018-12-03T22:51:51.759Z,7.60
2018-12-03T22:54:19.891Z,7.60
2018-12-03T22:56:48.074Z,7.70
2018-12-03T22:59:16.350Z,7.60
2018-12-03T23:01:44.543Z,7.60
2018-12-03T23:04:13.646Z,7.50
2018-12-03T23:06:41.792Z,7.40
2018-12-03T23:09:09.926Z,7.40
2018-12-03T23:11:38.784Z,7.20
2018-12-03T23:14:06.922Z,7.20
2018-12-03T23:16:35.053Z,7.10
2018-12-03T23:19:03.313Z,7.10
2018-12-03T23:21:31.439Z,7.00
2018-12-03T23:23:59.568Z,6.90
2018-12-03T23:26:27.706Z,6.90
2018-12-03T23:28:55.836Z,6.90
2018-12-03T23:31:23.986Z,7.00
2018-12-03T23:33:52.142Z,7.10
2018-12-03T23:36:20.276Z,7.10
2018-12-03T23:38:48.403Z,7.20
2018-12-03T23:41:16.549Z,7.20
2018-12-03T23:43:44.777Z,7.30
2018-12-03T23:46:12.908Z,7.40
2018-12-03T23:48:41.442Z,7.40
2018-12-03T23:51:09.597Z,7.40
2018-12-03T23:53:37.838Z,7.30
2018-12-03T23:56:05.982Z,7.20
2018-12-03T23:58:34.131Z,7.10
